WetterOnline ( http://www.wetteronline.de )

Wetter aktuell Döttesfeld

Aktuelles Wetter: Roleber (162m)

6-stündlich | Neueste Meldungen
Ortszeit Temperatur Wetter
So, 21.10. 14:00 15.3° C wolkenlos
So, 21.10. 8:00 2.2° C wolkenlos
So, 21.10. 2:00 4.1° C wolkig
Sa, 20.10. 20:00 9.9° C wolkig
Sa, 20.10. 14:00 13.1° C leicht bewölkt
Sa, 20.10. 8:00 5.8° C bedeckt
Sa, 20.10. 2:00 8.1° C wolkig
Fr, 19.10. 20:00 9.5° C fast wolkenlos
Ortszeit Temperatur Wetter
So, 21.10. 19:00 9.9° C wolkig
So, 21.10. 18:50 9.9° C wolkig
So, 21.10. 18:40 10.0° C wolkig
So, 21.10. 18:30 11.4° C wolkig
So, 21.10. 18:20 11.4° C wolkig
So, 21.10. 18:10 12.2° C wolkig
So, 21.10. 18:00 13.7° C leicht bewölkt
So, 21.10. 17:30 14.5° C fast wolkenlos
So, 21.10. 17:00 15.2° C leicht bewölkt
So, 21.10. 16:30 15.6° C leicht bewölkt
So, 21.10. 16:00 15.8° C wolkenlos
Ortszeit Relative Feuchte Sichtweite
So, 21.10. 14:00 55% 25 km
So, 21.10. 8:00 98% 1.3 km
So, 21.10. 2:00 97% 4.0 km
Sa, 20.10. 20:00 76% 20 km
Sa, 20.10. 14:00 67% 10 km
Sa, 20.10. 8:00 97% 1.9 km
Sa, 20.10. 2:00 97% 2.9 km
Fr, 19.10. 20:00 94% 3.9 km
Ortszeit Relative Feuchte Sichtweite
So, 21.10. 19:00 75% 35 km
So, 21.10. 18:50 75% -
So, 21.10. 18:40 75% -
So, 21.10. 18:30 69% 35 km
So, 21.10. 18:20 69% -
So, 21.10. 18:10 64% -
So, 21.10. 18:00 58% 50 km
So, 21.10. 17:30 55% 45 km
So, 21.10. 17:00 51% 50 km
So, 21.10. 16:30 49% 50 km
So, 21.10. 16:00 48% 40 km
Ortszeit Niederschlagsmenge Niederschlagsart
So, 21.10. 14:00 0.0 l/m2 in 6 Std. -
So, 21.10. 8:00 0.0 l/m2 in 12 Std. -
So, 21.10. 2:00 0.0 l/m2 in 6 Std. -
Sa, 20.10. 20:00 0.0 l/m2 in 12 Std. -
Sa, 20.10. 14:00 0.0 l/m2 in 6 Std. -
Sa, 20.10. 8:00 0.0 l/m2 in 12 Std. -
Sa, 20.10. 2:00 0.0 l/m2 in 6 Std. -
Fr, 19.10. 20:00 0.0 l/m2 in 12 Std. -
Ortszeit Niederschlagsmenge Niederschlagsart
So, 21.10. 19:00 0.0 l/m2 in 1 Std. -
So, 21.10. 18:50 keine Meldung -
So, 21.10. 18:40 keine Meldung -
So, 21.10. 18:30 0.0 l/m2 in 1 Std. -
So, 21.10. 18:20 keine Meldung -
So, 21.10. 18:10 keine Meldung -
So, 21.10. 18:00 0.0 l/m2 in 1 Std. -
So, 21.10. 17:30 0.0 l/m2 in 1 Std. -
So, 21.10. 17:00 0.0 l/m2 in 1 Std. -
So, 21.10. 16:30 0.0 l/m2 in 1 Std. -
So, 21.10. 16:00 0.0 l/m2 in 1 Std. -
Ortszeit Stärke Spitze Richtung
km/h Bft. km/h Grad Sektor
So, 21.10. 14:00 4 1 14 200° S
So, 21.10. 8:00 4 1 7 120° SO
So, 21.10. 2:00 0 0 7 - -
Sa, 20.10. 20:00 6 1 15 320° NW
Sa, 20.10. 14:00 4 1 14 330° NW
Sa, 20.10. 8:00 6 1 11 270° W
Sa, 20.10. 2:00 4 1 7 250° W
Fr, 19.10. 20:00 0 0 11 - -
Ortszeit Stärke Spitze Richtung
km/h Bft. km/h Grad Sektor
So, 21.10. 19:00 7 2 9 130° SO
So, 21.10. 18:50 7 2 - 130° SO
So, 21.10. 18:40 7 2 - 140° SO
So, 21.10. 18:30 4 1 7 170° S
So, 21.10. 18:20 4 1 - 170° S
So, 21.10. 18:10 4 1 - 180° S
So, 21.10. 18:00 7 2 11 170° S
So, 21.10. 17:30 6 1 11 180° S
So, 21.10. 17:00 7 2 14 180° S
So, 21.10. 16:30 9 2 15 160° S
So, 21.10. 16:00 7 2 18 200° S
Ortszeit Untergrenze Bedeckung Gattung
total tief tief mittel hoch
So, 21.10. 14:00 - 0/8 0/8 - - -
So, 21.10. 8:00 - 0/8 0/8 - - -
So, 21.10. 2:00 6600 m 5/8 5/8 - - -
Sa, 20.10. 20:00 8100 m 8/8 0/8 - - -
Sa, 20.10. 14:00 7800 m 8/8 0/8 - - -
Sa, 20.10. 8:00 - 8/8 - - - -
Sa, 20.10. 2:00 1080 m 6/8 6/8 - - -
Fr, 19.10. 20:00 9000 m 1/8 0/8 - - -
Ortszeit Bedeckungsgrad in Achtel und Wolkenuntergrenze
So, 21.10. 19:00 8(10500m)
So, 21.10. 18:50 8(10500m)
So, 21.10. 18:40 8(10500m)
So, 21.10. 18:30 8(10500m) 8(10500m)
So, 21.10. 18:20 8(10500m) 8(10500m)
So, 21.10. 18:10 6(9000m) 8(10500m)
So, 21.10. 18:00 1(9000m) 5(10500m)
So, 21.10. 17:30 2(10500m)
So, 21.10. 17:00 7(10500m)
So, 21.10. 16:30 5(10500m)
So, 21.10. 16:00 1(10500m)
Ortszeit Luftdruck NN (hPa) Tendenz (hPa in 3 Std.)
So, 21.10. 14:00 1029 - 1,4
So, 21.10. 8:00 1030 - 0,8
So, 21.10. 2:00 1031 - 0,9
Sa, 20.10. 20:00 1031 + 1,0
Sa, 20.10. 14:00 1031 - 0,4
Sa, 20.10. 8:00 1030 + 1,4
Sa, 20.10. 2:00 1027 + 1,1
Fr, 19.10. 20:00 1025 + 1,2
Ortszeit Luftdruck NN (hPa) Tendenz (hPa in 3 Std.)
So, 21.10. 19:00 1027 - 1,1
So, 21.10. 18:50 1027 keine Meldung
So, 21.10. 18:40 1027 keine Meldung
So, 21.10. 18:30 1027 - 1,2
So, 21.10. 18:20 1027 keine Meldung
So, 21.10. 18:10 1027 keine Meldung
So, 21.10. 18:00 1027 - 1,4
So, 21.10. 17:30 1027 - 1,5
So, 21.10. 17:00 1027 - 1,5
So, 21.10. 16:30 1027 - 1,5
So, 21.10. 16:00 1028 - 1,5
Ortszeit Schneehöhe (cm)
So, 21.10. 14:00 0
So, 21.10. 8:00 0
So, 21.10. 2:00 0
Sa, 20.10. 20:00 0
Sa, 20.10. 14:00 0
Sa, 20.10. 8:00 0
Sa, 20.10. 2:00 0
Fr, 19.10. 20:00 0
Ortszeit Schneehöhe (cm)
So, 21.10. 19:00 0
So, 21.10. 18:50 0
So, 21.10. 18:40 0
So, 21.10. 18:30 0
So, 21.10. 18:20 0
So, 21.10. 18:10 0
So, 21.10. 18:00 0
So, 21.10. 17:30 0
So, 21.10. 17:00 0
So, 21.10. 16:30 0
So, 21.10. 16:00 0
Link zu dieser Seite / Seite empfehlen

Das Wetter in ...